Hauptseite
METAR-TAF:

METAR-TAF

Flughäfen :

Flughafen Heringsdorf

Heringsdorf, Deutschland

Breite: 53-53N, Länge: 014-09E, Höhe: 28 m

Beobachtung

Neuester Wetterbericht von vor 37 Minuten, um 00:20 UTC
Wind 2 kt aus unterschiedlichen Richtungen
Temperatur -2°C
Luftfeuchtigkeit 74%
Luftdruck 1039 hPa
Sichtweite 10 km oder mehr

METAR: EDAH 050020Z AUTO VRB02KT 9999 // OVC160/// M02/M06 Q1039

Zeit: 01:57 (00:57 UTC)

Prognose

Neuester Wetterbericht von vor 10 Stunden und 57 Minuten, um 14:00 UTC
Gültige Prognose vom 04 um 15 UTC bis 04 um 24 UTC
Wind 10 kt aus Nord
Sichtweite 10 km oder mehr
Durchbrochene Bewölkung in der Höhe von 3000 ft
Übergehend zu
vom 04 um 15 UTC bis 04 um 18 UTC
Wind 5 kt aus Nord

TAF: EDAH 041400Z 0415/0424 01010KT 9999 BKN030 BECMG 0415/0418 01005KT

Wetterbeobachtungen und Prognosen von mehr als 4000 Flughäfen (METAR und TAF Bericht).

Die verfügbaren Stationen werden durch gelbe und rote Markierungen auf der Karte dargestellt.

Führen Sie die Maus auf sie, um den Namen der Station zu sehen.

Darauf klicken, um die Beobachtung von Wetterbeobachtungen und Prognosen zu sehen.

Um die Karte zu ändern : klicken Sie auf den grünen Tasten mit einem schwarzen Kreuz Zum Vergrößern, auf den grünen Button mit einem Gedankenstrich zu verkleinern, oder auf die grünen Pfeile für benachbarte Karten.


METAR-TAF: